createdAt,value
2023-02-23T00:00:15.151Z,101189.19
2023-02-23T00:03:19.104Z,101193.50
2023-02-23T00:06:26.448Z,101191.75
2023-02-23T00:09:35.730Z,101191.75
2023-02-23T00:12:39.620Z,101189.09
2023-02-23T00:15:43.432Z,101185.56
2023-02-23T00:18:50.876Z,101189.03
2023-02-23T00:21:58.940Z,101183.00
2023-02-23T00:25:03.381Z,101178.69
2023-02-23T00:28:07.584Z,101182.19
2023-02-23T00:31:12.325Z,101181.34
2023-02-23T00:34:21.181Z,101190.00
2023-02-23T00:37:26.586Z,101192.66
2023-02-23T00:40:30.686Z,101184.81
2023-02-23T00:43:37.367Z,101186.56
2023-02-23T00:46:41.994Z,101180.50
2023-02-23T00:49:46.212Z,101180.41
2023-02-23T00:52:51.536Z,101174.28
2023-02-23T00:55:56.454Z,101178.56
2023-02-23T00:59:00.286Z,101182.16
2023-02-23T01:02:04.267Z,101186.59
2023-02-23T01:05:08.942Z,101181.41
2023-02-23T01:08:15.534Z,101182.41
2023-02-23T01:11:23.461Z,101192.00
2023-02-23T01:14:27.271Z,101196.28
2023-02-23T01:17:49.678Z,101199.72
2023-02-23T01:20:53.688Z,101190.22
2023-02-23T01:23:59.430Z,101196.31
2023-02-23T01:27:03.239Z,101205.00
2023-02-23T01:30:10.392Z,101199.88
2023-02-23T01:33:14.189Z,101198.16
2023-02-23T01:36:18.855Z,101194.66
2023-02-23T01:39:24.170Z,101195.53
2023-02-23T01:42:28.061Z,101192.00
2023-02-23T01:45:43.760Z,101198.97
2023-02-23T01:48:48.547Z,101194.63
2023-02-23T01:52:01.219Z,101193.75
2023-02-23T01:55:13.070Z,101198.06
2023-02-23T01:58:21.397Z,101190.28
2023-02-23T02:01:25.555Z,101203.28
2023-02-23T02:04:33.805Z,101195.47
2023-02-23T02:07:39.865Z,101201.63
2023-02-23T02:10:46.508Z,101194.72
2023-02-23T02:13:50.599Z,101204.28
2023-02-23T02:17:13.891Z,101193.88
2023-02-23T02:20:52.466Z,101199.09
2023-02-23T02:24:53.625Z,101199.88
2023-02-23T02:28:51.367Z,101194.72
2023-02-23T02:32:47.509Z,101195.59
2023-02-23T02:36:34.300Z,101199.06
2023-02-23T02:39:53.753Z,101193.88
2023-02-23T02:43:10.421Z,101192.00
2023-02-23T02:46:22.866Z,101185.97
2023-02-23T02:49:32.824Z,101193.72
2023-02-23T02:52:42.399Z,101192.81
2023-02-23T02:55:50.338Z,101187.56
2023-02-23T02:58:55.909Z,101189.25
2023-02-23T03:02:17.668Z,101186.59
2023-02-23T03:05:42.858Z,101186.59
2023-02-23T03:09:19.710Z,101185.75
2023-02-23T03:12:58.412Z,101185.69
2023-02-23T03:16:39.724Z,101190.00
2023-02-23T03:20:12.535Z,101192.56
2023-02-23T03:23:42.138Z,101189.09
2023-02-23T03:27:15.446Z,101182.13
2023-02-23T03:30:48.319Z,101186.47
2023-02-23T03:34:21.655Z,101189.03
2023-02-23T03:37:49.749Z,101192.47
2023-02-23T03:41:13.856Z,101194.25
2023-02-23T03:44:44.491Z,101197.72
2023-02-23T03:48:09.483Z,101195.06
2023-02-23T03:51:33.629Z,101195.06
2023-02-23T03:55:00.905Z,101201.09
2023-02-23T03:58:26.955Z,101201.09
2023-02-23T04:01:49.886Z,101200.22
2023-02-23T04:05:19.984Z,101203.56
2023-02-23T04:08:47.880Z,101196.72
2023-02-23T04:12:16.361Z,101199.31
2023-02-23T04:15:27.873Z,101202.75
2023-02-23T04:18:34.885Z,101200.16
2023-02-23T04:21:40.130Z,101201.00
2023-02-23T04:24:43.947Z,101209.72
2023-02-23T04:27:47.720Z,101210.50
2023-02-23T04:30:53.078Z,101208.84
2023-02-23T04:33:57.105Z,101213.16
2023-02-23T04:37:02.318Z,101216.59
2023-02-23T04:40:07.807Z,101215.75
2023-02-23T04:43:13.736Z,101213.13
2023-02-23T04:46:17.516Z,101213.09
2023-02-23T04:49:21.376Z,101216.50
2023-02-23T04:52:26.573Z,101214.78
2023-02-23T04:55:30.504Z,101216.53
2023-02-23T04:58:34.215Z,101210.47
2023-02-23T05:01:38.207Z,101211.34
2023-02-23T05:04:42.054Z,101212.16
2023-02-23T05:07:50.280Z,101214.78
2023-02-23T05:10:54.043Z,101214.81
2023-02-23T05:13:57.848Z,101216.53
2023-02-23T05:17:01.681Z,101213.03
2023-02-23T05:20:06.321Z,101217.44
2023-02-23T05:23:11.699Z,101218.22
2023-02-23T05:26:16.044Z,101216.53
2023-02-23T05:29:20.133Z,101223.50
2023-02-23T05:32:24.144Z,101218.28
2023-02-23T05:35:27.972Z,101220.03
2023-02-23T05:38:33.263Z,101226.13
2023-02-23T05:41:37.168Z,101224.34
2023-02-23T05:44:41.106Z,101219.22
2023-02-23T05:47:44.897Z,101217.50
2023-02-23T05:50:48.782Z,101223.56
2023-02-23T05:53:54.001Z,101221.88
2023-02-23T05:56:59.002Z,101225.38
2023-02-23T06:00:05.719Z,101228.88
2023-02-23T06:03:09.611Z,101232.38
2023-02-23T06:06:14.345Z,101241.09
2023-02-23T06:09:19.672Z,101233.25
2023-02-23T06:12:24.004Z,101242.88
2023-02-23T06:15:29.891Z,101237.66
2023-02-23T06:18:34.010Z,101241.13
2023-02-23T06:21:37.939Z,101246.34
2023-02-23T06:24:43.236Z,101249.81
2023-02-23T06:27:47.143Z,101253.25
2023-02-23T06:30:53.495Z,101249.81
2023-02-23T06:33:57.416Z,101257.63
2023-02-23T06:37:01.177Z,101261.13
2023-02-23T06:40:08.513Z,101263.75
2023-02-23T06:43:12.321Z,101265.44
2023-02-23T06:46:16.191Z,101270.66
2023-02-23T06:49:19.945Z,101269.84
2023-02-23T06:52:25.156Z,101265.50
2023-02-23T06:55:30.426Z,101272.41
2023-02-23T06:58:34.543Z,101281.13
2023-02-23T07:01:38.347Z,101282.78
2023-02-23T07:04:42.547Z,101290.63
2023-02-23T07:07:46.632Z,101288.03
2023-02-23T07:10:51.836Z,101298.47
2023-02-23T07:13:59.441Z,101298.47
2023-02-23T07:17:04.372Z,101294.91
2023-02-23T07:20:09.210Z,101305.34
2023-02-23T07:23:13.023Z,101301.00
2023-02-23T07:26:18.512Z,101305.38
2023-02-23T07:29:24.122Z,101301.81
2023-02-23T07:32:28.091Z,101307.94
2023-02-23T07:35:32.003Z,101306.22
2023-02-23T07:38:36.709Z,101310.53
2023-02-23T07:41:41.974Z,101311.22
2023-02-23T07:44:46.796Z,101310.53
2023-02-23T07:47:50.701Z,101322.59
2023-02-23T07:50:55.128Z,101317.47
2023-02-23T07:54:05.951Z,101321.72
2023-02-23T07:57:13.080Z,101326.16
2023-02-23T08:00:17.970Z,101326.09
2023-02-23T08:03:21.835Z,101328.69
2023-02-23T08:06:25.709Z,101333.09
2023-02-23T08:09:30.844Z,101340.00
2023-02-23T08:12:36.265Z,101346.13
2023-02-23T08:15:40.219Z,101346.94
2023-02-23T08:18:44.195Z,101348.66
2023-02-23T08:21:47.947Z,101347.81
2023-02-23T08:24:51.795Z,101350.44
2023-02-23T08:27:57.215Z,101352.22
2023-02-23T08:31:01.269Z,101359.94
2023-02-23T08:34:05.077Z,101361.69
2023-02-23T08:37:09.292Z,101355.63
2023-02-23T08:40:15.867Z,101362.56
2023-02-23T08:43:21.002Z,101358.25
2023-02-23T08:46:24.838Z,101366.88
2023-02-23T08:49:28.640Z,101366.00
2023-02-23T08:52:32.614Z,101364.22
2023-02-23T08:55:37.324Z,101361.56
2023-02-23T08:58:43.502Z,101354.59
2023-02-23T09:01:47.327Z,101355.56
2023-02-23T09:04:54.118Z,101367.66
2023-02-23T09:07:57.937Z,101363.31
2023-02-23T09:11:01.718Z,101362.41
2023-02-23T09:14:07.093Z,101364.19
2023-02-23T09:17:11.572Z,101361.53
2023-02-23T09:20:18.864Z,101370.22
2023-02-23T09:23:24.226Z,101376.34
2023-02-23T09:26:29.426Z,101371.97
2023-02-23T09:29:35.128Z,101377.13
2023-02-23T09:32:39.035Z,101376.31
2023-02-23T09:35:43.348Z,101373.66
2023-02-23T09:38:50.484Z,101374.47
2023-02-23T09:42:18.246Z,101369.28
2023-02-23T09:45:38.691Z,101370.09
2023-02-23T09:48:43.360Z,101374.47
2023-02-23T09:51:55.448Z,101381.38
2023-02-23T09:55:00.120Z,101377.91
2023-02-23T09:58:15.008Z,101386.59
2023-02-23T10:01:58.901Z,101386.59
2023-02-23T10:05:09.780Z,101386.59
2023-02-23T10:08:43.609Z,101388.97
2023-02-23T10:11:57.358Z,101382.88
2023-02-23T10:15:20.082Z,101385.53
2023-02-23T10:18:46.647Z,101384.44
2023-02-23T10:21:58.019Z,101381.88
2023-02-23T10:25:07.629Z,101382.69
2023-02-23T10:28:17.876Z,101386.25
2023-02-23T10:31:34.755Z,101376.66
2023-02-23T10:34:41.903Z,101387.13
2023-02-23T10:37:47.369Z,101381.19
2023-02-23T10:40:56.570Z,101385.50
2023-02-23T10:44:15.441Z,101386.38
2023-02-23T10:47:26.536Z,101379.41
2023-02-23T10:50:33.896Z,101387.19
2023-02-23T10:53:40.062Z,101386.31
2023-02-23T10:56:48.512Z,101390.81
2023-02-23T11:00:30.822Z,101389.97
2023-02-23T11:03:40.561Z,101395.25
2023-02-23T11:06:48.758Z,101402.25
2023-02-23T11:09:52.956Z,101406.59
2023-02-23T11:12:56.811Z,101404.88
2023-02-23T11:16:10.456Z,101401.38
2023-02-23T11:19:31.364Z,101398.81
2023-02-23T11:22:42.398Z,101403.13
2023-02-23T11:25:49.513Z,101395.31
2023-02-23T11:28:57.779Z,101394.53
2023-02-23T11:32:10.169Z,101395.41
2023-02-23T11:35:29.491Z,101391.97
2023-02-23T11:38:35.960Z,101395.44
2023-02-23T11:41:39.899Z,101399.81
2023-02-23T11:44:44.948Z,101395.47
2023-02-23T11:47:52.070Z,101391.97
2023-02-23T11:50:57.640Z,101391.13
2023-02-23T11:54:05.941Z,101390.22
2023-02-23T11:57:10.034Z,101391.13
2023-02-23T12:00:25.464Z,101388.63
2023-02-23T12:03:34.766Z,101397.50
2023-02-23T12:06:41.374Z,101407.13
2023-02-23T12:09:49.892Z,101402.78
2023-02-23T12:13:07.529Z,101405.41
2023-02-23T12:16:20.630Z,101408.06
2023-02-23T12:19:33.080Z,101403.69
2023-02-23T12:22:44.776Z,101403.72
2023-02-23T12:25:56.221Z,101410.66
2023-02-23T12:29:07.400Z,101396.81
2023-02-23T12:32:20.302Z,101401.97
2023-02-23T12:35:32.563Z,101399.44
2023-02-23T12:38:52.082Z,101402.91
2023-02-23T12:42:09.367Z,101412.59
2023-02-23T12:45:25.771Z,101410.91
2023-02-23T12:48:40.129Z,101407.41
2023-02-23T12:51:52.955Z,101403.88
2023-02-23T12:54:57.795Z,101399.47
2023-02-23T12:58:15.977Z,101400.31
2023-02-23T13:01:28.485Z,101396.78
2023-02-23T13:05:13.178Z,101390.69
2023-02-23T13:08:31.974Z,101388.91
2023-02-23T13:11:59.877Z,101396.69
2023-02-23T13:15:27.129Z,101392.28
2023-02-23T13:18:38.672Z,101391.44
2023-02-23T13:21:50.613Z,101394.88
2023-02-23T13:25:00.000Z,101392.28
2023-02-23T13:28:05.590Z,101387.06
2023-02-23T13:31:23.760Z,101376.47
2023-02-23T13:34:32.615Z,101376.25
2023-02-23T13:37:48.048Z,101376.19
2023-02-23T13:41:06.320Z,101383.19
2023-02-23T13:44:26.606Z,101383.91
2023-02-23T13:47:45.651Z,101377.03
2023-02-23T13:51:01.237Z,101383.09
2023-02-23T13:54:24.402Z,101384.81
2023-02-23T13:57:30.162Z,101384.81
2023-02-23T14:00:35.308Z,101371.72
2023-02-23T14:03:54.786Z,101376.03
2023-02-23T14:07:06.803Z,101379.59
2023-02-23T14:10:21.430Z,101380.53
2023-02-23T14:13:30.361Z,101367.44
2023-02-23T14:16:34.436Z,101371.72
2023-02-23T14:19:43.541Z,101365.53
2023-02-23T14:23:30.265Z,101367.19
2023-02-23T14:26:47.804Z,101365.44
2023-02-23T14:30:27.314Z,101368.97
2023-02-23T14:33:51.918Z,101373.34
2023-02-23T14:36:57.176Z,101364.56
2023-02-23T14:40:14.407Z,101367.16
2023-02-23T14:43:44.092Z,101368.94
2023-02-23T14:46:59.099Z,101365.41
2023-02-23T14:50:04.035Z,101370.63
2023-02-23T14:53:19.837Z,101366.31
2023-02-23T14:56:35.503Z,101362.03
2023-02-23T14:59:52.418Z,101361.09
2023-02-23T15:03:00.406Z,101367.09
2023-02-23T15:06:04.442Z,101363.66
2023-02-23T15:09:19.478Z,101367.19
2023-02-23T15:12:28.651Z,101365.31
2023-02-23T15:15:49.875Z,101364.59
2023-02-23T15:18:54.397Z,101364.50
2023-02-23T15:22:01.702Z,101370.63
2023-02-23T15:25:17.669Z,101370.75
2023-02-23T15:28:29.664Z,101371.69
2023-02-23T15:31:34.943Z,101375.19
2023-02-23T15:34:39.027Z,101377.75
2023-02-23T15:37:55.407Z,101388.25
2023-02-23T15:41:23.240Z,101384.00
2023-02-23T15:44:43.795Z,101391.84
2023-02-23T15:47:48.781Z,101393.72
2023-02-23T15:50:57.808Z,101400.09
2023-02-23T15:54:06.825Z,101403.69
2023-02-23T15:57:22.976Z,101409.81
2023-02-23T16:00:38.094Z,101419.47
2023-02-23T16:03:48.142Z,101407.41
2023-02-23T16:06:55.498Z,101424.06
2023-02-23T16:10:19.573Z,101431.09
2023-02-23T16:13:27.393Z,101426.78
2023-02-23T16:16:36.318Z,101438.06
2023-02-23T16:19:42.094Z,101439.91
2023-02-23T16:22:54.932Z,101448.56
2023-02-23T16:26:06.787Z,101455.47
2023-02-23T16:29:20.335Z,101452.94
2023-02-23T16:32:24.964Z,101461.59
2023-02-23T16:35:41.069Z,101460.72
2023-02-23T16:38:59.136Z,101459.88
2023-02-23T16:42:03.133Z,101461.59
2023-02-23T16:45:17.278Z,101464.19
2023-02-23T16:48:21.263Z,101460.72
2023-02-23T16:51:25.058Z,101465.06
2023-02-23T16:54:29.446Z,101465.06
2023-02-23T16:57:42.011Z,101463.34
2023-02-23T17:00:48.079Z,101466.81
2023-02-23T17:03:54.092Z,101469.41
2023-02-23T17:06:57.942Z,101462.47
2023-02-23T17:10:01.743Z,101465.06
2023-02-23T17:13:08.823Z,101470.28
2023-02-23T17:16:15.451Z,101486.72
2023-02-23T17:19:20.300Z,101486.72
2023-02-23T17:22:24.104Z,101479.81
2023-02-23T17:25:29.075Z,101483.25
2023-02-23T17:28:32.949Z,101478.94
2023-02-23T17:31:40.461Z,101476.31
2023-02-23T17:34:44.345Z,101482.41
2023-02-23T17:37:48.682Z,101475.47
2023-02-23T17:40:52.405Z,101478.94
2023-02-23T17:43:56.548Z,101476.31
2023-02-23T17:47:01.768Z,101477.19
2023-02-23T17:50:06.353Z,101480.66
2023-02-23T17:53:10.173Z,101482.41
2023-02-23T17:56:14.051Z,101484.97
2023-02-23T17:59:17.907Z,101478.91
2023-02-23T18:02:24.201Z,101479.75
2023-02-23T18:05:28.211Z,101477.16
2023-02-23T18:08:58.159Z,101478.00
2023-02-23T18:12:03.410Z,101488.34
2023-02-23T18:15:08.911Z,101497.03
2023-02-23T18:18:14.192Z,101486.59
2023-02-23T18:21:21.170Z,101489.19
2023-02-23T18:24:25.202Z,101488.34
2023-02-23T18:27:29.010Z,101488.34
2023-02-23T18:30:32.936Z,101489.25
2023-02-23T18:33:40.050Z,101494.38
2023-02-23T18:36:44.276Z,101490.09
2023-02-23T18:39:52.517Z,101486.59
2023-02-23T18:42:58.299Z,101489.25
2023-02-23T18:46:05.913Z,101486.63
2023-02-23T18:49:16.061Z,101486.63
2023-02-23T18:52:20.242Z,101488.34
2023-02-23T18:55:24.997Z,101477.97
2023-02-23T18:58:28.501Z,101473.63
2023-02-23T19:01:34.684Z,101471.88
2023-02-23T19:04:40.186Z,101474.47
2023-02-23T19:07:44.348Z,101477.03
2023-02-23T19:10:48.510Z,101483.09
2023-02-23T19:13:53.069Z,101483.03
2023-02-23T19:16:56.541Z,101488.22
2023-02-23T19:20:01.822Z,101476.16
2023-02-23T19:23:06.290Z,101471.81
2023-02-23T19:26:09.798Z,101470.06
2023-02-23T19:29:13.313Z,101479.59
2023-02-23T19:32:18.049Z,101477.00
2023-02-23T19:35:23.061Z,101470.97
2023-02-23T19:38:27.528Z,101475.28
2023-02-23T19:41:30.986Z,101479.59
2023-02-23T19:44:34.774Z,101480.44
2023-02-23T19:47:38.372Z,101483.03
2023-02-23T19:50:49.571Z,101472.66
2023-02-23T19:53:55.369Z,101475.31
2023-02-23T19:56:58.967Z,101476.16
2023-02-23T20:00:02.651Z,101476.16
2023-02-23T20:03:07.359Z,101475.31
2023-02-23T20:06:14.518Z,101472.72
2023-02-23T20:09:18.251Z,101482.19
2023-02-23T20:12:21.977Z,101481.34
2023-02-23T20:15:42.774Z,101493.47
2023-02-23T20:18:47.047Z,101488.22
2023-02-23T20:21:52.376Z,101486.41
2023-02-23T20:24:56.929Z,101493.28
2023-02-23T20:28:00.514Z,101505.38
2023-02-23T20:31:05.616Z,101499.28
2023-02-23T20:34:12.094Z,101496.66
2023-02-23T20:37:17.129Z,101501.78
2023-02-23T20:40:23.061Z,101493.91
2023-02-23T20:43:26.537Z,101489.63
2023-02-23T20:46:31.005Z,101485.25
2023-02-23T20:49:34.616Z,101492.13
2023-02-23T20:52:40.516Z,101491.22
2023-02-23T20:55:43.992Z,101486.94
2023-02-23T20:58:48.666Z,101492.13
2023-02-23T21:01:52.123Z,101483.44
2023-02-23T21:04:55.826Z,101486.00
2023-02-23T21:08:03.037Z,101487.75
2023-02-23T21:11:07.909Z,101476.56
2023-02-23T21:14:12.019Z,101479.13
2023-02-23T21:17:15.558Z,101472.19
2023-02-23T21:20:21.116Z,101473.03
2023-02-23T21:23:26.768Z,101472.19
2023-02-23T21:26:30.569Z,101470.44
2023-02-23T21:29:34.108Z,101467.88
2023-02-23T21:32:42.177Z,101467.00
2023-02-23T21:35:45.839Z,101458.34
2023-02-23T21:38:51.359Z,101460.94
2023-02-23T21:41:54.930Z,101458.31
2023-02-23T21:44:58.423Z,101451.41
2023-02-23T21:48:04.075Z,101451.38
2023-02-23T21:51:11.453Z,101451.25
2023-02-23T21:54:16.602Z,101454.66
2023-02-23T21:57:22.710Z,101460.69
2023-02-23T22:00:28.075Z,101448.56
2023-02-23T22:03:31.541Z,101447.78
2023-02-23T22:06:40.263Z,101440.78
2023-02-23T22:09:45.539Z,101439.22
2023-02-23T22:12:50.671Z,101439.22
2023-02-23T22:15:59.988Z,101438.41
2023-02-23T22:19:05.074Z,101440.06
2023-02-23T22:22:08.537Z,101446.16
2023-02-23T22:25:13.559Z,101436.59
2023-02-23T22:28:16.987Z,101434.88
2023-02-23T22:31:21.012Z,101434.88
2023-02-23T22:34:24.678Z,101429.78
2023-02-23T22:37:30.021Z,101431.56
2023-02-23T22:40:35.859Z,101426.28
2023-02-23T22:43:40.290Z,101416.75
2023-02-23T22:46:46.524Z,101422.84
2023-02-23T22:49:51.014Z,101418.53
2023-02-23T22:52:54.452Z,101415.06
2023-02-23T22:55:59.694Z,101406.50
2023-02-23T22:59:06.222Z,101404.75
2023-02-23T23:02:11.798Z,101388.41
2023-02-23T23:05:16.240Z,101387.59
2023-02-23T23:08:19.731Z,101382.38
2023-02-23T23:11:28.390Z,101382.38
2023-02-23T23:14:32.685Z,101378.94
2023-02-23T23:17:36.133Z,101363.44
2023-02-23T23:20:39.637Z,101366.00
2023-02-23T23:23:46.125Z,101353.97
2023-02-23T23:26:55.540Z,101346.16
2023-02-23T23:29:59.116Z,101349.59
2023-02-23T23:33:03.444Z,101342.72
2023-02-23T23:36:08.298Z,101344.41
2023-02-23T23:39:13.261Z,101344.47
2023-02-23T23:42:18.134Z,101347.06
2023-02-23T23:45:25.223Z,101335.81
2023-02-23T23:48:29.651Z,101334.94
2023-02-23T23:51:38.797Z,101328.91
2023-02-23T23:54:42.886Z,101330.66
2023-02-23T23:57:47.964Z,101321.16
